Time;durP1;ratioP1;P1;durP2;ratioP2;P2;SDS_P1;SDS_P2;PMS_P1;PMS_P2;Temp;Humidity;BMP_temperature;BMP_pressure;BME280_temperature;BME280_humidity;BME280_pressure;Samples;Min_cycle;Max_cycle;Signal;HPM_P1;HPM_P2
2022/08/21 00:02:24;;;;;;;21.90;12.75;;;;;;;14.51;94.19;101635.00;5062329;28;20052;-67
2022/08/21 00:04:50;;;;;;;16.40;12.15;;;;;;;14.48;94.31;101636.31;5063136;28;20433;-67
2022/08/21 00:07:17;;;;;;;20.02;12.65;;;;;;;14.46;94.10;101632.91;5058237;28;20013;-67
2022/08/21 00:09:43;;;;;;;18.40;11.82;;;;;;;14.42;94.12;101630.88;5041799;28;20017;-67
2022/08/21 00:12:08;;;;;;;19.33;12.23;;;;;;;14.41;94.39;101627.25;5041951;28;20400;-67
2022/08/21 00:14:34;;;;;;;17.98;11.98;;;;;;;14.39;94.92;101626.63;5042406;28;20114;-67
2022/08/21 00:17:01;;;;;;;19.73;12.20;;;;;;;14.39;94.77;101626.63;5046523;28;20048;-68
2022/08/21 00:19:27;;;;;;;19.63;12.85;;;;;;;14.38;94.71;101629.66;5042464;28;20059;-67
2022/08/21 00:21:54;;;;;;;17.95;11.63;;;;;;;14.33;95.02;101619.31;5041494;28;20025;-67
2022/08/21 00:24:21;;;;;;;19.10;11.68;;;;;;;14.31;94.71;101626.16;5041906;28;20036;-67
2022/08/21 00:26:47;;;;;;;17.45;11.35;;;;;;;14.29;94.34;101626.38;5042413;28;20021;-68
2022/08/21 00:29:13;;;;;;;16.70;11.23;;;;;;;14.25;94.47;101620.50;5041658;28;20036;-68
2022/08/21 00:31:39;;;;;;;20.13;12.60;;;;;;;14.23;94.64;101621.78;5041094;28;20506;-67
2022/08/21 00:34:04;;;;;;;18.42;12.32;;;;;;;14.22;94.92;101625.66;5042302;28;20094;-67
2022/08/21 00:36:30;;;;;;;21.08;11.75;;;;;;;14.21;94.79;101621.22;5041373;28;20026;-68
2022/08/21 00:38:56;;;;;;;19.40;11.65;;;;;;;14.17;94.74;101622.75;5041609;28;20033;-67
2022/08/21 00:41:23;;;;;;;18.17;11.68;;;;;;;14.12;94.98;101617.94;5042314;28;20422;-68
2022/08/21 00:43:49;;;;;;;18.92;12.00;;;;;;;14.10;95.13;101603.53;5042536;28;20495;-67
2022/08/21 00:46:15;;;;;;;20.25;12.13;;;;;;;14.09;95.43;101618.41;5041321;28;20029;-67
2022/08/21 00:48:40;;;;;;;17.05;12.60;;;;;;;14.07;95.47;101614.19;5042629;28;20580;-67
2022/08/21 00:51:22;;;;;;;18.10;12.27;;;;;;;14.09;96.03;101614.78;5045145;28;20021;-67
2022/08/21 00:53:50;;;;;;;18.90;12.52;;;;;;;14.06;95.49;101613.34;5046293;28;20043;-68
2022/08/21 00:56:15;;;;;;;18.38;12.77;;;;;;;14.05;95.57;101608.06;5044939;28;20055;-67
2022/08/21 00:58:42;;;;;;;20.38;12.30;;;;;;;14.03;95.75;101620.16;5045579;28;20618;-68
2022/08/21 01:01:08;;;;;;;21.60;12.80;;;;;;;13.99;95.54;101618.16;5045372;28;20029;-67
2022/08/21 01:03:35;;;;;;;21.73;12.18;;;;;;;13.93;95.90;101613.53;5045903;28;20396;-67
2022/08/21 01:06:04;;;;;;;19.60;12.32;;;;;;;13.90;95.85;101616.78;5047937;28;20036;-67
2022/08/21 01:08:29;;;;;;;19.38;12.45;;;;;;;13.92;96.11;101620.97;5056365;22;20056;-67
2022/08/21 01:10:56;;;;;;;16.23;12.15;;;;;;;13.90;96.08;101616.78;5024619;28;20109;-67
2022/08/21 01:13:24;;;;;;;21.70;12.95;;;;;;;13.86;96.22;101615.56;5025476;28;20025;-68
2022/08/21 01:15:52;;;;;;;18.40;12.85;;;;;;;13.89;96.09;101617.84;5025483;28;20422;-68
2022/08/21 01:18:18;;;;;;;18.13;12.90;;;;;;;13.86;96.18;101613.63;5025565;28;20320;-68
2022/08/21 01:21:03;;;;;;;19.73;12.45;;;;;;;13.89;97.10;101612.31;5024712;28;20055;-67
2022/08/21 01:23:28;;;;;;;19.30;11.45;;;;;;;13.81;96.10;101613.50;5025428;28;20030;-67
2022/08/21 01:25:54;;;;;;;18.25;11.93;;;;;;;13.77;95.33;101606.75;5043710;28;20388;-67
2022/08/21 01:28:21;;;;;;;17.50;11.50;;;;;;;13.70;95.62;101608.78;5045353;28;20509;-67
2022/08/21 01:30:50;;;;;;;20.58;12.80;;;;;;;13.71;95.74;101607.69;5045577;28;20051;-67
2022/08/21 01:33:17;;;;;;;18.00;11.27;;;;;;;13.66;96.26;101605.63;5045422;28;20116;-67
2022/08/21 01:35:42;;;;;;;18.92;12.30;;;;;;;13.67;96.58;101609.22;5044241;28;20021;-67
2022/08/21 01:38:08;;;;;;;16.58;11.88;;;;;;;13.64;96.28;101607.78;5044723;28;20017;-68
2022/08/21 01:40:34;;;;;;;19.42;11.60;;;;;;;13.60;96.27;101611.25;5044200;28;20060;-67
2022/08/21 01:42:59;;;;;;;18.15;11.57;;;;;;;13.58;95.89;101602.31;5025822;28;20151;-68
2022/08/21 01:45:24;;;;;;;20.77;12.27;;;;;;;13.59;96.36;101620.59;5025234;28;20069;-68
2022/08/21 01:47:50;;;;;;;16.42;12.10;;;;;;;13.57;96.62;101612.53;5042238;28;20025;-67
2022/08/21 01:50:18;;;;;;;21.50;12.93;;;;;;;13.56;97.11;101610.84;5044447;28;20024;-69
2022/08/21 01:52:43;;;;;;;19.85;12.05;;;;;;;13.56;97.09;101610.00;5044826;28;20060;-67
2022/08/21 01:55:11;;;;;;;21.30;12.77;;;;;;;13.55;97.28;101613.84;5043944;28;20051;-67
2022/08/21 01:57:36;;;;;;;20.63;12.80;;;;;;;13.57;96.87;101607.00;5044843;28;20031;-67
2022/08/21 02:00:05;;;;;;;19.73;13.15;;;;;;;13.53;97.20;101605.78;5027821;28;20766;-68
2022/08/21 02:02:31;;;;;;;19.13;13.15;;;;;;;13.47;96.84;101602.03;5024782;28;20109;-67
2022/08/21 02:04:56;;;;;;;17.13;13.40;;;;;;;13.44;96.76;101598.91;5024603;28;20149;-67
2022/08/21 02:07:21;;;;;;;22.40;13.35;;;;;;;13.40;97.41;101598.53;5022624;28;20389;-67
2022/08/21 02:09:47;;;;;;;19.55;14.35;;;;;;;13.40;97.25;101595.78;5024330;28;20064;-68
2022/08/21 02:12:12;;;;;;;20.60;13.88;;;;;;;13.41;97.76;101586.41;5024237;28;20041;-67
2022/08/21 02:14:37;;;;;;;16.67;12.25;;;;;;;13.38;97.38;101581.38;5023401;28;20463;-67
2022/08/21 02:17:03;;;;;;;17.80;11.98;;;;;;;13.34;97.73;101591.19;5024107;28;20030;-67
2022/08/21 02:19:29;;;;;;;18.73;12.45;;;;;;;13.34;98.01;101584.81;5024481;28;20513;-68
2022/08/21 02:21:54;;;;;;;19.35;13.55;;;;;;;13.33;97.88;101583.13;5023731;28;20025;-68
2022/08/21 02:24:19;;;;;;;18.35;12.65;;;;;;;13.33;98.63;101592.25;5023655;28;20029;-67
2022/08/21 02:26:45;;;;;;;18.20;13.25;;;;;;;13.36;98.80;101589.03;5024207;28;20443;-68
2022/08/21 02:29:10;;;;;;;19.88;13.15;;;;;;;13.36;98.34;101582.66;5024001;28;20509;-67
2022/08/21 02:31:35;;;;;;;20.45;13.77;;;;;;;13.30;97.75;101587.19;5023627;28;20091;-67
2022/08/21 02:34:01;;;;;;;20.35;13.57;;;;;;;13.25;97.89;101584.28;5022901;28;20033;-67
2022/08/21 02:36:26;;;;;;;19.50;13.98;;;;;;;13.28;98.61;101574.69;5033910;28;20032;-67
2022/08/21 02:38:52;;;;;;;17.42;13.05;;;;;;;13.24;98.49;101575.16;5042426;28;20036;-67
2022/08/21 02:41:20;;;;;;;19.20;13.10;;;;;;;13.21;97.57;101574.75;5044160;28;20059;-67
2022/08/21 02:43:46;;;;;;;18.80;13.13;;;;;;;13.20;97.14;101575.81;5044316;28;20017;-67
2022/08/21 02:46:14;;;;;;;20.35;13.05;;;;;;;13.19;97.52;101572.22;5043326;28;20698;-68
2022/08/21 02:48:39;;;;;;;;;;;;;;;13.35;96.11;101575.47;5044024;28;20423;-67
2022/08/21 02:51:13;;;;;;;20.90;14.30;;;;;;;13.19;97.35;101574.97;5027641;28;19955;-67
2022/08/21 02:53:39;;;;;;;20.88;14.45;;;;;;;13.16;98.21;101569.91;5004791;28;20041;-67
2022/08/21 02:56:08;;;;;;;21.80;15.55;;;;;;;13.13;98.06;101570.41;5023317;28;20080;-68
2022/08/21 02:58:38;;;;;;;16.98;13.40;;;;;;;13.13;97.84;101572.31;5023393;28;20462;-68
2022/08/21 03:01:03;;;;;;;18.80;13.32;;;;;;;13.13;98.54;101575.06;5023205;28;20051;-68
2022/08/21 03:03:29;;;;;;;16.20;11.95;;;;;;;13.08;98.03;101563.88;5023663;28;20087;-67
2022/08/21 03:05:55;;;;;;;19.92;12.82;;;;;;;13.02;97.72;101575.81;5024139;28;20029;-67
2022/08/21 03:08:21;;;;;;;21.63;13.05;;;;;;;12.98;97.68;101572.69;5041823;28;20114;-66
2022/08/21 03:10:49;;;;;;;18.48;13.20;;;;;;;12.98;97.75;101573.53;5042552;28;20027;-67
2022/08/21 03:13:15;;;;;;;19.52;13.90;;;;;;;12.98;97.69;101564.41;5042731;28;20013;-67
2022/08/21 03:15:41;;;;;;;19.77;13.23;;;;;;;12.96;97.63;101578.41;5043594;28;20906;-67
2022/08/21 03:18:08;;;;;;;17.05;13.18;;;;;;;13.00;98.14;101578.81;5042824;28;20067;-67
2022/08/21 03:20:35;;;;;;;17.60;13.05;;;;;;;12.98;97.99;101576.28;5042829;28;20119;-67
2022/08/21 03:23:03;;;;;;;16.38;12.25;;;;;;;12.94;97.98;101565.94;5044685;28;20033;-68
2022/08/21 03:25:31;;;;;;;18.55;12.43;;;;;;;12.94;98.48;101565.94;5041696;28;20032;-67
2022/08/21 03:27:57;;;;;;;18.60;13.48;;;;;;;12.89;98.42;101568.53;5043128;28;20044;-67
2022/08/21 03:30:22;;;;;;;19.50;13.45;;;;;;;12.89;98.75;101565.78;5042770;28;20025;-67
2022/08/21 03:32:48;;;;;;;18.98;12.73;;;;;;;12.83;98.40;101562.03;5042920;28;20028;-68
2022/08/21 03:35:14;;;;;;;18.60;12.73;;;;;;;12.78;98.69;101559.13;5042403;28;20507;-67
2022/08/21 03:37:40;;;;;;;19.15;12.75;;;;;;;12.77;98.32;101562.06;5039580;28;20115;-68
2022/08/21 03:40:08;;;;;;;19.85;12.88;;;;;;;12.77;99.08;101557.41;5021257;28;20067;-68
2022/08/21 03:42:34;;;;;;;18.23;13.65;;;;;;;12.79;99.29;101554.44;5023052;28;20026;-68
2022/08/21 03:45:00;;;;;;;19.35;13.05;;;;;;;12.78;99.26;101552.75;5022670;28;20095;-67
2022/08/21 03:47:26;;;;;;;18.55;13.25;;;;;;;12.80;99.54;101550.59;5022564;28;20021;-68
2022/08/21 03:49:51;;;;;;;18.65;11.68;;;;;;;12.73;98.77;101561.72;5022665;28;20120;-68
2022/08/21 03:52:17;;;;;;;17.30;10.80;;;;;;;12.71;98.09;101558.31;5022574;28;20079;-68
2022/08/21 03:54:43;;;;;;;14.35;10.52;;;;;;;12.63;97.21;101550.38;5029227;28;20059;-68
2022/08/21 03:57:10;;;;;;;19.55;11.88;;;;;;;12.61;98.08;101558.00;5061907;28;20073;-68
2022/08/21 03:59:36;;;;;;;17.25;12.38;;;;;;;12.58;98.55;101550.22;5062801;28;20661;-68
2022/08/21 04:02:04;;;;;;;18.67;13.30;;;;;;;12.57;99.13;101556.75;5062280;28;20025;-69
2022/08/21 04:04:30;;;;;;;17.63;14.02;;;;;;;12.57;99.34;101554.00;5062340;28;20068;-68
2022/08/21 04:06:56;;;;;;;20.02;15.07;;;;;;;12.56;99.43;101555.91;5061985;28;20067;-68
2022/08/21 04:09:22;;;;;;;18.85;14.65;;;;;;;12.58;99.33;101547.44;5061959;28;20035;-68
2022/08/21 04:11:47;;;;;;;20.02;14.90;;;;;;;12.57;99.58;101554.00;5062470;28;20024;-68
2022/08/21 04:14:14;;;;;;;20.90;13.55;;;;;;;12.53;99.41;101555.56;5035475;28;20037;-68
2022/08/21 04:16:40;;;;;;;18.30;11.57;;;;;;;12.42;98.40;101560.72;5030912;28;20175;-68
2022/08/21 04:19:06;;;;;;;17.85;11.98;;;;;;;12.40;98.49;101562.00;5041893;28;20027;-68
2022/08/21 04:21:32;;;;;;;19.05;13.45;;;;;;;12.40;98.65;101568.38;5042109;28;20025;-68
2022/08/21 04:23:58;;;;;;;21.02;14.60;;;;;;;12.42;99.10;101569.00;5026637;28;20009;-68
2022/08/21 04:26:23;;;;;;;21.05;16.40;;;;;;;12.49;99.24;101560.66;5046389;28;20365;-68
2022/08/21 04:28:48;;;;;;;20.08;15.43;;;;;;;12.49;98.86;101565.34;5046842;28;20017;-68
2022/08/21 04:31:14;;;;;;;22.98;16.23;;;;;;;12.52;99.37;101564.88;5044347;28;20543;-68
2022/08/21 04:33:39;;;;;;;19.67;15.70;;;;;;;12.56;99.42;101571.63;5066184;28;20033;-68
2022/08/21 04:36:06;;;;;;;23.95;17.50;;;;;;;12.58;99.39;101580.53;5065157;28;20518;-68
2022/08/21 04:38:32;;;;;;;25.00;17.65;;;;;;;12.60;99.29;101581.13;5064538;28;20052;-67
2022/08/21 04:40:57;;;;;;;25.38;17.33;;;;;;;12.63;99.73;101583.44;5065531;28;20075;-68
2022/08/21 04:43:23;;;;;;;23.17;17.65;;;;;;;12.63;99.70;101586.19;5065403;28;20042;-68
2022/08/21 04:45:49;;;;;;;24.85;18.10;;;;;;;12.64;99.58;101582.38;5066154;28;20047;-68
2022/08/21 04:48:17;;;;;;;29.00;20.38;;;;;;;12.63;100.00;101583.44;5065236;28;20126;-69
2022/08/21 04:50:51;;;;;;;26.70;19.25;;;;;;;12.62;100.00;101582.59;5040495;28;20025;-68
2022/08/21 04:53:24;;;;;;;26.45;19.05;;;;;;;12.66;100.00;101582.97;5025373;28;20037;-69
2022/08/21 04:55:52;;;;;;;25.25;18.40;;;;;;;12.66;100.00;101582.97;5025683;28;20033;-69
2022/08/21 04:58:18;;;;;;;;;;;;;;;12.80;98.90;101578.19;5025679;28;20361;-69
2022/08/21 05:00:45;;;;;;;28.65;20.02;;;;;;;12.64;99.70;101580.44;5025264;28;19913;-69
2022/08/21 05:03:12;;;;;;;28.73;21.30;;;;;;;12.66;100.00;101588.47;5025038;28;20045;-68
2022/08/21 05:05:39;;;;;;;27.67;19.63;;;;;;;12.62;99.89;101584.47;5028177;28;20021;-68
2022/08/21 05:08:07;;;;;;;31.70;20.53;;;;;;;12.65;100.00;101586.81;5029764;28;20188;-69
2022/08/21 05:10:33;;;;;;;29.40;21.67;;;;;;;12.69;100.00;101585.28;5024501;28;20472;-69
2022/08/21 05:13:00;;;;;;;30.70;19.30;;;;;;;12.70;100.00;101585.03;5024490;28;20044;-69
2022/08/21 05:15:25;;;;;;;26.08;19.85;;;;;;;12.72;100.00;101593.06;5024998;28;20606;-69
2022/08/21 05:17:51;;;;;;;30.77;20.42;;;;;;;12.71;99.93;101595.00;5024956;28;20463;-69
2022/08/21 05:20:16;;;;;;;26.52;20.25;;;;;;;12.73;100.00;101601.13;5024330;28;20033;-69
2022/08/21 05:22:42;;;;;;;26.48;20.05;;;;;;;12.77;100.00;101597.91;5024787;28;20044;-69
2022/08/21 05:25:08;;;;;;;27.38;20.05;;;;;;;12.77;100.00;101597.91;5023639;28;20617;-69
2022/08/21 05:27:33;;;;;;;29.83;20.33;;;;;;;12.80;100.00;101601.06;5024823;28;20190;-69
2022/08/21 05:29:59;;;;;;;33.72;20.92;;;;;;;12.86;100.00;101594.63;5024264;28;20476;-68
2022/08/21 05:32:25;;;;;;;30.50;20.13;;;;;;;12.88;100.00;101598.03;5025171;28;20025;-68
2022/08/21 05:34:50;;;;;;;28.85;20.25;;;;;;;12.93;100.00;101605.63;5024155;28;20112;-67
2022/08/21 05:37:16;;;;;;;33.72;21.80;;;;;;;12.95;100.00;101611.75;5023663;28;20112;-69
2022/08/21 05:39:41;;;;;;;29.50;19.67;;;;;;;13.01;100.00;101608.06;5023550;28;20087;-69
2022/08/21 05:42:07;;;;;;;29.98;20.60;;;;;;;13.07;100.00;101604.38;5023430;28;20025;-69
2022/08/21 05:44:32;;;;;;;33.45;20.48;;;;;;;13.12;100.00;101600.94;5023809;28;20026;-69
2022/08/21 05:47:05;;;;;;;28.75;19.38;;;;;;;13.17;100.00;101601.09;5024263;28;20056;-68
2022/08/21 05:49:31;;;;;;;28.10;18.70;;;;;;;13.23;99.91;101605.75;5024576;28;20029;-68
2022/08/21 05:51:56;;;;;;;27.95;19.65;;;;;;;13.29;99.90;101609.50;5023765;28;20044;-68
2022/08/21 05:54:21;;;;;;;26.65;17.33;;;;;;;13.35;99.85;101608.56;5023773;28;20072;-68
2022/08/21 05:56:46;;;;;;;30.40;17.98;;;;;;;13.41;99.56;101602.97;5038632;28;20396;-68
2022/08/21 05:59:12;;;;;;;26.00;17.50;;;;;;;13.48;98.57;101612.03;5043936;28;20037;-69
2022/08/21 06:01:38;;;;;;;32.08;18.08;;;;;;;13.48;99.34;101606.50;5055282;28;20383;-69
2022/08/21 06:04:04;;;;;;;29.83;17.85;;;;;;;13.55;99.88;101613.84;5063374;28;20028;-69
2022/08/21 06:06:29;;;;;;;27.02;17.05;;;;;;;13.61;98.94;101612.91;5063335;28;20530;-68
2022/08/21 06:08:55;;;;;;;28.48;17.45;;;;;;;13.67;99.12;101606.47;5060951;28;21044;-68
2022/08/21 06:11:20;;;;;;;29.75;17.77;;;;;;;13.74;98.89;101598.94;5062143;28;20021;-67
2022/08/21 06:13:46;;;;;;;32.78;17.42;;;;;;;13.79;99.14;101610.13;5055260;28;20032;-68
2022/08/21 06:16:13;;;;;;;27.52;16.73;;;;;;;13.84;99.14;101618.56;5042488;28;20034;-68
2022/08/21 06:18:39;;;;;;;31.23;18.17;;;;;;;13.92;98.23;101614.63;5021510;28;20487;-69
2022/08/21 06:21:05;;;;;;;28.23;16.35;;;;;;;13.96;97.93;101615.84;5032944;28;20057;-69
2022/08/21 06:23:31;;;;;;;30.33;17.27;;;;;;;14.03;98.42;101613.81;5029071;28;20404;-68
2022/08/21 06:25:56;;;;;;;26.83;16.10;;;;;;;14.11;98.38;101619.00;5045877;28;20579;-68
2022/08/21 06:28:21;;;;;;;27.60;15.30;;;;;;;14.19;97.56;101617.81;5037857;28;20025;-69
2022/08/21 06:30:47;;;;;;;26.48;15.68;;;;;;;14.28;97.33;101620.00;5042103;28;20035;-68
2022/08/21 06:33:12;;;;;;;29.10;15.40;;;;;;;14.34;97.57;101612.69;5040691;28;20422;-68
2022/08/21 06:35:37;;;;;;;29.88;15.60;;;;;;;14.42;97.24;101614.28;5040826;28;20044;-69
2022/08/21 06:38:03;;;;;;;30.02;15.57;;;;;;;14.50;97.01;101619.50;5039102;28;20040;-69
2022/08/21 06:40:29;;;;;;;30.27;15.05;;;;;;;14.60;96.76;101614.22;5040409;28;20504;-69
2022/08/21 06:42:56;;;;;;;25.88;15.10;;;;;;;14.69;95.96;101609.16;5040670;28;20409;-69
2022/08/21 06:45:22;;;;;;;29.48;15.93;;;;;;;14.76;95.78;101618.22;5039366;28;20037;-69
2022/08/21 06:47:47;;;;;;;30.33;15.27;;;;;;;14.85;95.63;101621.44;5047374;28;20040;-69
2022/08/21 06:50:12;;;;;;;28.33;15.43;;;;;;;14.92;94.93;101613.88;5034476;28;20025;-69
2022/08/21 06:52:38;;;;;;;29.20;15.57;;;;;;;14.97;95.82;101617.59;5029914;28;20306;-69
2022/08/21 06:55:05;;;;;;;31.60;16.05;;;;;;;15.08;95.59;101617.84;5009930;28;20025;-70
2022/08/21 06:57:31;;;;;;;31.83;14.90;;;;;;;15.15;94.72;101619.38;5060187;28;20115;-70
2022/08/21 06:59:56;;;;;;;33.17;15.75;;;;;;;15.23;94.47;101619.00;5048153;28;20155;-69
2022/08/21 07:02:21;;;;;;;31.23;15.27;;;;;;;15.37;94.51;101611.31;5045912;28;20025;-69
2022/08/21 07:04:47;;;;;;;31.30;15.43;;;;;;;15.50;94.93;101611.00;5053636;28;20017;-69
2022/08/21 07:07:12;;;;;;;32.25;14.60;;;;;;;15.69;93.58;101603.41;5040889;28;20114;-69
2022/08/21 07:09:37;;;;;;;29.27;14.82;;;;;;;15.88;92.77;101601.28;5045679;28;20462;-69
2022/08/21 07:12:03;;;;;;;30.10;15.02;;;;;;;16.15;92.91;101604.28;5046841;28;20025;-70
2022/08/21 07:14:28;;;;;;;32.80;15.35;;;;;;;16.72;90.99;101606.09;5041501;28;20029;-69
2022/08/21 07:16:54;;;;;;;34.47;15.98;;;;;;;17.49;86.55;101606.13;5041253;28;20021;-69
2022/08/21 07:19:19;;;;;;;29.45;13.73;;;;;;;18.28;81.54;101604.75;5023701;28;20124;-69
2022/08/21 07:21:45;;;;;;;37.55;16.27;;;;;;;18.18;80.91;101602.72;5040627;28;20029;-69
2022/08/21 07:24:11;;;;;;;31.00;13.80;;;;;;;17.86;82.67;101599.91;5040441;28;20025;-69
2022/08/21 07:26:36;;;;;;;39.58;15.23;;;;;;;17.68;83.14;101597.41;5041673;28;20032;-69
2022/08/21 07:29:02;;;;;;;32.58;15.20;;;;;;;17.79;84.12;101593.69;5041149;28;20104;-69
2022/08/21 07:31:28;;;;;;;34.35;13.60;;;;;;;17.77;84.50;101590.34;5024305;28;20129;-68
2022/08/21 07:33:54;;;;;;;35.42;14.80;;;;;;;17.60;84.42;101596.78;5021254;28;20392;-68
2022/08/21 07:36:19;;;;;;;37.83;14.02;;;;;;;17.48;85.58;101600.78;5037761;28;20074;-68
2022/08/21 07:38:45;;;;;;;40.55;15.52;;;;;;;17.37;86.19;101597.03;5040503;28;20024;-69
2022/08/21 07:41:21;;;;;;;39.85;15.77;;;;;;;17.30;87.55;101615.84;5040927;28;20028;-68
2022/08/21 07:43:46;;;;;;;35.50;15.82;;;;;;;17.26;87.44;101607.19;5041074;28;20096;-69
2022/08/21 07:46:13;;;;;;;39.72;15.55;;;;;;;17.33;87.56;101606.97;5040879;28;20036;-69
2022/08/21 07:48:38;;;;;;;37.60;15.70;;;;;;;17.41;87.20;101594.59;5030383;28;20533;-70
2022/08/21 07:51:09;;;;;;;37.08;14.77;;;;;;;17.42;87.36;101605.44;5020765;28;20091;-69
2022/08/21 07:53:36;;;;;;;35.67;14.90;;;;;;;17.42;86.95;101599.88;5021078;28;20473;-68
2022/08/21 07:56:01;;;;;;;40.97;14.82;;;;;;;17.44;87.66;101599.66;5021412;28;20024;-69
2022/08/21 07:58:27;;;;;;;34.13;13.48;;;;;;;17.57;85.99;101602.03;5020885;28;20029;-68
2022/08/21 08:00:52;;;;;;;32.28;12.63;;;;;;;17.56;85.94;101601.19;5021656;28;20033;-69
2022/08/21 08:03:18;;;;;;;40.13;14.77;;;;;;;17.59;86.16;101605.41;5022513;28;20017;-69
2022/08/21 08:05:43;;;;;;;38.90;14.30;;;;;;;17.66;87.61;101596.84;5021134;28;20025;-68
2022/08/21 08:08:08;;;;;;;38.80;14.60;;;;;;;17.77;86.84;101596.75;5020112;28;20296;-70
2022/08/21 08:10:35;;;;;;;40.78;14.68;;;;;;;17.79;85.88;101599.25;5021751;28;20018;-68
2022/08/21 08:13:00;;;;;;;33.03;13.02;;;;;;;17.83;85.52;101601.25;5021187;28;20028;-68
2022/08/21 08:15:27;;;;;;;37.95;13.07;;;;;;;17.91;85.66;101605.50;5021272;28;20384;-68
2022/08/21 08:17:54;;;;;;;35.38;13.10;;;;;;;18.03;86.42;101603.41;5021308;28;20087;-68
2022/08/21 08:20:19;;;;;;;28.15;12.10;;;;;;;18.10;86.11;101601.28;5021637;28;20419;-69
2022/08/21 08:22:45;;;;;;;35.78;12.55;;;;;;;18.17;84.43;101601.06;5026560;28;20024;-69
2022/08/21 08:25:13;;;;;;;33.03;12.77;;;;;;;18.24;84.79;101595.25;5042248;28;20294;-69
2022/08/21 08:27:39;;;;;;;;;;;;;;;18.33;85.53;101604.81;5041946;28;20049;-68
2022/08/21 08:30:07;;;;;;;24.02;9.52;;;;;;;18.53;83.85;101599.44;5041547;28;19948;-69
2022/08/21 08:32:32;;;;;;;22.75;9.05;;;;;;;18.71;83.35;101602.94;5041490;28;20032;-69
2022/08/21 08:34:57;;;;;;;21.58;9.73;;;;;;;18.65;81.81;101596.44;5041723;28;20455;-69
2022/08/21 08:37:22;;;;;;;22.30;9.00;;;;;;;18.78;81.95;101589.63;5040518;28;20036;-68
2022/08/21 08:39:49;;;;;;;23.83;9.43;;;;;;;18.86;81.67;101591.94;5040311;28;20349;-69
2022/08/21 08:42:25;;;;;;;21.70;8.52;;;;;;;18.93;80.64;101596.13;5054276;28;20383;-68
2022/08/21 08:44:57;;;;;;;22.92;9.18;;;;;;;19.00;80.32;101593.09;5061012;28;20107;-69
2022/08/21 08:47:25;;;;;;;19.75;9.35;;;;;;;19.08;80.22;101587.03;5061508;28;20375;-69
2022/08/21 08:50:08;;;;;;;19.85;8.60;;;;;;;19.19;79.36;101586.00;5061146;28;20090;-67
2022/08/21 08:52:36;;;;;;;17.25;7.32;;;;;;;19.33;79.20;101583.56;5061247;28;20084;-69
2022/08/21 08:55:09;;;;;;;16.70;8.15;;;;;;;19.52;78.11;101580.31;5060983;28;20039;-68
2022/08/21 08:57:36;;;;;;;17.27;7.65;;;;;;;19.70;76.76;101575.09;5047207;28;20026;-69
2022/08/21 09:00:10;;;;;;;20.00;7.95;;;;;;;19.89;76.28;101571.78;5020930;28;20132;-69
2022/08/21 09:02:38;;;;;;;19.85;7.07;;;;;;;20.04;74.51;101563.47;5021627;28;20040;-69
2022/08/21 09:05:05;;;;;;;18.27;6.38;;;;;;;20.33;73.48;101565.72;5021163;28;20025;-68
2022/08/21 09:07:50;;;;;;;18.83;6.60;;;;;;;20.75;73.75;101561.81;5021024;28;20037;-69
2022/08/21 09:10:23;;;;;;;17.13;5.65;;;;;;;21.84;70.20;101554.41;5022927;28;20116;-68
2022/08/21 09:13:11;;;;;;;13.38;5.10;;;;;;;23.78;65.59;101550.56;5025324;28;20068;-68
2022/08/21 09:15:52;;;;;;;14.38;4.03;;;;;;;25.24;56.80;101543.81;5032346;28;20025;-69
2022/08/21 09:18:41;;;;;;;13.27;4.22;;;;;;;25.90;55.51;101550.81;5025258;28;20060;-68
2022/08/21 09:21:09;;;;;;;14.00;3.75;;;;;;;26.98;49.76;101546.13;5006197;28;20380;-68
2022/08/21 09:23:34;;;;;;;;;;;;;;;27.97;52.98;101557.88;5024070;28;20033;-68
2022/08/21 09:26:06;;;;;;;9.40;2.90;;;;;;;28.65;46.89;101551.38;5023824;28;20000;-68
2022/08/21 09:28:35;;;;;;;9.85;2.75;;;;;;;29.26;44.69;101559.66;5024492;28;20029;-69
2022/08/21 09:31:05;;;;;;;11.30;3.55;;;;;;;29.62;42.51;101552.66;5024054;28;20435;-68
2022/08/21 09:33:30;;;;;;;12.10;2.85;;;;;;;30.15;42.48;101551.09;5028254;28;20025;-69
2022/08/21 09:35:59;;;;;;;11.00;3.45;;;;;;;30.33;39.50;101551.78;5023525;28;20059;-69
2022/08/21 09:38:34;;;;;;;10.23;3.17;;;;;;;29.93;40.99;101555.09;5023148;28;20040;-69
2022/08/21 09:41:05;;;;;;;10.93;3.70;;;;;;;29.39;42.36;101557.75;5024046;28;20084;-68
2022/08/21 09:43:31;;;;;;;9.90;2.90;;;;;;;30.13;41.55;101556.28;5024599;28;20025;-68
2022/08/21 09:46:22;;;;;;;11.10;3.03;;;;;;;31.54;40.77;101558.06;5024203;28;20057;-68
2022/08/21 09:48:51;;;;;;;7.93;2.30;;;;;;;31.81;36.46;101559.31;5024460;28;20104;-67
2022/08/21 09:51:21;;;;;;;10.43;2.72;;;;;;;32.14;35.02;101564.81;5023282;28;20072;-67
2022/08/21 09:53:53;;;;;;;9.57;2.25;;;;;;;32.42;33.59;101562.81;5023909;28;20022;-66
2022/08/21 09:59:31;;;;;;;11.63;3.13;;;;;;;31.88;34.31;101562.41;5024114;28;20121;-69
2022/08/21 10:02:00;;;;;;;7.78;2.28;;;;;;;31.88;34.35;101553.88;5023092;28;20120;-67
2022/08/21 10:04:35;;;;;;;9.50;2.40;;;;;;;32.30;35.81;101548.66;5024918;28;20112;-67
2022/08/21 10:07:10;;;;;;;8.25;2.13;;;;;;;32.64;33.74;101555.72;5041515;28;20116;-68
2022/08/21 10:09:35;;;;;;;12.85;2.60;;;;;;;32.47;31.96;101556.88;5062474;28;20025;-68
2022/08/21 10:12:03;;;;;;;8.82;2.42;;;;;;;31.44;34.02;101559.38;5063526;28;20021;-67
2022/08/21 10:14:50;;;;;;;9.38;2.40;;;;;;;29.87;35.76;101551.66;5063089;28;20040;-67
2022/08/21 10:17:36;;;;;;;6.53;2.35;;;;;;;30.53;37.89;101548.06;5063703;28;20115;-67
2022/08/21 10:20:10;;;;;;;11.65;2.83;;;;;;;30.92;34.05;101551.50;5062646;28;20680;-67
2022/08/21 10:22:42;;;;;;;8.40;2.40;;;;;;;30.60;36.12;101556.81;5062673;28;20113;-67
2022/08/21 10:25:07;;;;;;;9.18;2.90;;;;;;;29.89;36.13;101559.78;5058998;28;20017;-67
2022/08/21 10:28:02;;;;;;;8.10;3.17;;;;;;;30.57;36.07;101556.72;5063301;28;20036;-68
2022/08/21 10:30:40;;;;;;;9.25;2.65;;;;;;;31.55;35.42;101556.88;5063093;28;20097;-67
2022/08/21 10:33:24;;;;;;;8.52;2.40;;;;;;;32.24;32.99;101550.94;5062888;28;20451;-67
2022/08/21 10:36:04;;;;;;;7.47;2.92;;;;;;;32.20;34.03;101543.47;5062544;28;20032;-67
2022/08/21 10:38:32;;;;;;;7.60;2.70;;;;;;;31.26;34.68;101544.56;5062085;28;20107;-67
2022/08/21 10:41:10;;;;;;;7.72;3.05;;;;;;;30.41;36.05;101537.50;5062481;28;20025;-67
2022/08/21 10:44:08;;;;;;;11.88;3.83;;;;;;;31.15;35.73;101540.53;5060550;28;20150;-67
2022/08/21 10:46:57;;;;;;;9.38;3.35;;;;;;;32.15;35.17;101544.56;5062964;28;20086;-67
2022/08/21 10:49:33;;;;;;;10.48;3.15;;;;;;;32.32;32.41;101540.56;5062593;28;20036;-67
2022/08/21 10:52:35;;;;;;;12.40;3.85;;;;;;;32.80;32.97;101536.66;5061872;28;20029;-66
2022/08/21 10:55:16;;;;;;;10.65;3.72;;;;;;;31.89;33.43;101539.31;5057951;28;20025;-67
2022/08/21 10:57:47;;;;;;;14.82;4.03;;;;;;;30.05;35.67;101543.81;5042678;28;20063;-66
2022/08/21 11:00:27;;;;;;;10.82;3.83;;;;;;;28.52;39.47;101537.44;5039808;28;20279;-67
2022/08/21 11:03:15;;;;;;;11.93;3.72;;;;;;;29.61;37.44;101534.84;5062286;28;20016;-67
2022/08/21 11:05:47;;;;;;;12.27;3.78;;;;;;;30.20;34.99;101531.06;5062091;28;20033;-67
2022/08/21 11:08:18;;;;;;;11.05;3.30;;;;;;;29.66;35.46;101528.97;5061368;28;20076;-67
2022/08/21 11:11:17;;;;;;;12.27;3.45;;;;;;;28.99;37.98;101526.16;5062324;28;20028;-67
2022/08/21 11:13:47;;;;;;;13.13;3.42;;;;;;;28.22;38.25;101528.81;5050440;28;20040;-67
2022/08/21 11:16:25;;;;;;;13.07;3.45;;;;;;;27.92;39.84;101534.28;5061964;28;20024;-67
2022/08/21 11:19:00;;;;;;;13.32;4.00;;;;;;;27.41;40.17;101535.03;5025793;28;20048;-68
2022/08/21 11:21:44;;;;;;;12.63;4.18;;;;;;;27.46;41.44;101537.69;5022023;28;20025;-67